Theux, Belgium
Current Conditions -  °F | °C
As of 10:04 AM on Thursday 23 Oct 2014 (Local Time) from EBLB Reporting Station
Haze Haze  
Wind Chill: 40°   Ceiling: 3500
Heat Index: 43°   Visibility: 2.3mi
Dew Point: 41°   Wind: 5mph
Humidity: 93%   Direction: 250°WSW
Pressure: 30.24"   Gusts: NA
Location:  50.53°N, 5.81°E
Report Text: EBLB 230804Z 25004KT 3700 BR BKN035 06/05 Q1024 GRN
Loading
Personal Weather Stations






























Interactive Weather Map New forecast layout! Learn more

10-Day Weather Forecast

Advertisements
Track Severe Weather on mobile